sensor_id;sensor_type;location;lat;lon;timestamp;pressure;altitude;pressure_sealevel;temperature
61595;BMP280;47397;48.194;11.632;2023-02-14T00:00:38;97801.03;;;0.55
61595;BMP280;47397;48.194;11.632;2023-02-14T00:01:39;97796.03;;;0.55
61595;BMP280;47397;48.194;11.632;2023-02-14T00:02:39;97808.47;;;0.54
61595;BMP280;47397;48.194;11.632;2023-02-14T00:03:39;97808.47;;;0.54
61595;BMP280;47397;48.194;11.632;2023-02-14T00:04:40;97811.00;;;0.18
61595;BMP280;47397;48.194;11.632;2023-02-14T00:05:40;97814.91;;;0.31
61595;BMP280;47397;48.194;11.632;2023-02-14T00:06:41;97820.06;;;0.34
61595;BMP280;47397;48.194;11.632;2023-02-14T00:07:42;97817.50;;;0.50
61595;BMP280;47397;48.194;11.632;2023-02-14T00:08:42;97822.69;;;0.37
61595;BMP280;47397;48.194;11.632;2023-02-14T00:09:42;97815.19;;;0.55
61595;BMP280;47397;48.194;11.632;2023-02-14T00:10:43;97813.19;;;0.30
61595;BMP280;47397;48.194;11.632;2023-02-14T00:11:44;97821.44;;;0.45
61595;BMP280;47397;48.194;11.632;2023-02-14T00:12:45;97811.97;;;0.57
61595;BMP280;47397;48.194;11.632;2023-02-14T00:13:45;97817.75;;;0.56
61595;BMP280;47397;48.194;11.632;2023-02-14T00:14:47;97815.06;;;0.52
61595;BMP280;47397;48.194;11.632;2023-02-14T00:15:47;97814.84;;;0.47
61595;BMP280;47397;48.194;11.632;2023-02-14T00:16:48;97810.13;;;0.53
61595;BMP280;47397;48.194;11.632;2023-02-14T00:17:49;97812.06;;;0.41
61595;BMP280;47397;48.194;11.632;2023-02-14T00:18:50;97813.78;;;0.24
61595;BMP280;47397;48.194;11.632;2023-02-14T00:19:50;97816.19;;;0.23
61595;BMP280;47397;48.194;11.632;2023-02-14T00:20:51;97810.13;;;0.53
61595;BMP280;47397;48.194;11.632;2023-02-14T00:21:51;97809.25;;;0.53
61595;BMP280;47397;48.194;11.632;2023-02-14T00:22:52;97817.31;;;0.65
61595;BMP280;47397;48.194;11.632;2023-02-14T00:23:52;97814.47;;;0.57
61595;BMP280;47397;48.194;11.632;2023-02-14T00:24:52;97816.56;;;0.48
61595;BMP280;47397;48.194;11.632;2023-02-14T00:25:53;97815.63;;;0.46
61595;BMP280;47397;48.194;11.632;2023-02-14T00:26:53;97823.19;;;0.30
61595;BMP280;47397;48.194;11.632;2023-02-14T00:27:54;97811.94;;;0.38
61595;BMP280;47397;48.194;11.632;2023-02-14T00:28:54;97813.34;;;0.33
61595;BMP280;47397;48.194;11.632;2023-02-14T00:29:56;97814.19;;;0.51
61595;BMP280;47397;48.194;11.632;2023-02-14T00:30:56;97815.91;;;0.52
61595;BMP280;47397;48.194;11.632;2023-02-14T00:31:57;97814.56;;;0.41
61595;BMP280;47397;48.194;11.632;2023-02-14T00:32:57;97811.69;;;0.51
61595;BMP280;47397;48.194;11.632;2023-02-14T00:33:58;97811.06;;;0.38
61595;BMP280;47397;48.194;11.632;2023-02-14T00:34:59;97812.16;;;0.43
61595;BMP280;47397;48.194;11.632;2023-02-14T00:36:01;97805.78;;;0.49
61595;BMP280;47397;48.194;11.632;2023-02-14T00:38:21;97803.19;;;0.48
61595;BMP280;47397;48.194;11.632;2023-02-14T00:39:21;97806.56;;;0.48
61595;BMP280;47397;48.194;11.632;2023-02-14T00:40:22;97809.25;;;0.53
61595;BMP280;47397;48.194;11.632;2023-02-14T00:41:22;97811.56;;;0.48
61595;BMP280;47397;48.194;11.632;2023-02-14T00:42:22;97807.69;;;0.37
61595;BMP280;47397;48.194;11.632;2023-02-14T00:43:23;97814.44;;;0.38
61595;BMP280;47397;48.194;11.632;2023-02-14T00:44:24;97813.84;;;0.44
61595;BMP280;47397;48.194;11.632;2023-02-14T00:45:25;97816.59;;;-0.04
61595;BMP280;47397;48.194;11.632;2023-02-14T00:46:26;97811.00;;;0.18
61595;BMP280;47397;48.194;11.632;2023-02-14T00:47:27;97813.41;;;0.35
61595;BMP280;47397;48.194;11.632;2023-02-14T00:48:28;97813.34;;;0.51
61595;BMP280;47397;48.194;11.632;2023-02-14T00:49:28;97815.06;;;0.52
61595;BMP280;47397;48.194;11.632;2023-02-14T00:50:28;97805.84;;;0.33
61595;BMP280;47397;48.194;11.632;2023-02-14T00:51:29;97813.84;;;0.26
61595;BMP280;47397;48.194;11.632;2023-02-14T00:52:30;97817.13;;;0.25
61595;BMP280;47397;48.194;11.632;2023-02-14T00:53:30;97824.13;;;0.14
61595;BMP280;47397;48.194;11.632;2023-02-14T00:54:31;97823.19;;;0.30
61595;BMP280;47397;48.194;11.632;2023-02-14T00:55:31;97823.59;;;0.38
61595;BMP280;47397;48.194;11.632;2023-02-14T00:56:31;97822.19;;;0.26
61595;BMP280;47397;48.194;11.632;2023-02-14T00:57:32;97827.06;;;0.23
61595;BMP280;47397;48.194;11.632;2023-02-14T00:58:32;97830.28;;;0.21
61595;BMP280;47397;48.194;11.632;2023-02-14T00:59:33;97817.41;;;0.31
61595;BMP280;47397;48.194;11.632;2023-02-14T01:00:34;97819.72;;;0.44
61595;BMP280;47397;48.194;11.632;2023-02-14T01:01:35;97821.84;;;0.54
61595;BMP280;47397;48.194;11.632;2023-02-14T01:02:35;97812.25;;;0.63
61595;BMP280;47397;48.194;11.632;2023-02-14T01:03:36;97810.63;;;0.46
61595;BMP280;47397;48.194;11.632;2023-02-14T01:04:36;97826.78;;;0.35
61595;BMP280;47397;48.194;11.632;2023-02-14T01:05:36;97826.75;;;-0.01
61595;BMP280;47397;48.194;11.632;2023-02-14T01:06:37;97824.91;;;0.13
61595;BMP280;47397;48.194;11.632;2023-02-14T01:07:37;97819.97;;;0.32
61595;BMP280;47397;48.194;11.632;2023-02-14T01:08:38;97814.56;;;0.23
61595;BMP280;47397;48.194;11.632;2023-02-14T01:09:38;97816.22;;;0.41
61595;BMP280;47397;48.194;11.632;2023-02-14T01:10:39;97819.44;;;0.38
61595;BMP280;47397;48.194;11.632;2023-02-14T01:11:39;97817.06;;;0.23
61595;BMP280;47397;48.194;11.632;2023-02-14T01:12:39;97812.78;;;0.39
61595;BMP280;47397;48.194;11.632;2023-02-14T01:13:41;97814.34;;;0.54
61595;BMP280;47397;48.194;11.632;2023-02-14T01:14:41;97817.63;;;0.53
61595;BMP280;47397;48.194;11.632;2023-02-14T01:15:45;97819.47;;;0.57
61595;BMP280;47397;48.194;11.632;2023-02-14T01:16:46;97821.06;;;0.55
61595;BMP280;47397;48.194;11.632;2023-02-14T01:17:46;97829.44;;;0.38
61595;BMP280;47397;48.194;11.632;2023-02-14T01:18:47;97820.91;;;0.35
61595;BMP280;47397;48.194;11.632;2023-02-14T01:19:50;97824.59;;;0.41
61595;BMP280;47397;48.194;11.632;2023-02-14T01:20:51;97830.31;;;0.39
61595;BMP280;47397;48.194;11.632;2023-02-14T01:21:51;97824.63;;;0.07
61595;BMP280;47397;48.194;11.632;2023-02-14T01:22:52;97822.91;;;0.24
61595;BMP280;47397;48.194;11.632;2023-02-14T01:23:54;97819.63;;;0.25
61595;BMP280;47397;48.194;11.632;2023-02-14T01:24:55;97820.50;;;0.08
61595;BMP280;47397;48.194;11.632;2023-02-14T01:25:55;97822.19;;;0.26
61595;BMP280;47397;48.194;11.632;2023-02-14T01:26:56;97821.28;;;0.24
61595;BMP280;47397;48.194;11.632;2023-02-14T01:27:56;97817.78;;;0.03
61595;BMP280;47397;48.194;11.632;2023-02-14T01:28:57;97821.59;;;-0.04
61595;BMP280;47397;48.194;11.632;2023-02-14T01:29:57;97826.91;;;0.03
61595;BMP280;47397;48.194;11.632;2023-02-14T01:31:06;97824.00;;;-0.23
61595;BMP280;47397;48.194;11.632;2023-02-14T01:32:07;97831.59;;;-0.04
61595;BMP280;47397;48.194;11.632;2023-02-14T01:33:07;97825.78;;;0.14
61595;BMP280;47397;48.194;11.632;2023-02-14T01:34:07;97829.28;;;0.17
61595;BMP280;47397;48.194;11.632;2023-02-14T01:35:08;97823.28;;;0.14
61595;BMP280;47397;48.194;11.632;2023-02-14T01:36:14;97824.50;;;0.22
61595;BMP280;47397;48.194;11.632;2023-02-14T01:37:14;97824.63;;;0.25
61595;BMP280;47397;48.194;11.632;2023-02-14T01:38:15;97824.50;;;0.40
61595;BMP280;47397;48.194;11.632;2023-02-14T01:39:15;97822.91;;;0.24
61595;BMP280;47397;48.194;11.632;2023-02-14T01:40:16;97823.00;;;0.25
61595;BMP280;47397;48.194;11.632;2023-02-14T01:41:16;97828.06;;;0.09
61595;BMP280;47397;48.194;11.632;2023-02-14T01:42:17;97829.50;;;0.04
61595;BMP280;47397;48.194;11.632;2023-02-14T01:43:18;97834.78;;;-0.24
61595;BMP280;47397;48.194;11.632;2023-02-14T01:44:57;97834.44;;;-0.14
61595;BMP280;47397;48.194;11.632;2023-02-14T01:45:58;97830.28;;;0.21
61595;BMP280;47397;48.194;11.632;2023-02-14T01:47:02;97830.91;;;0.17
61595;BMP280;47397;48.194;11.632;2023-02-14T01:48:03;97828.50;;;0.18
61595;BMP280;47397;48.194;11.632;2023-02-14T01:49:07;97826.06;;;0.20
61595;BMP280;47397;48.194;11.632;2023-02-14T01:50:14;97828.06;;;0.09
61595;BMP280;47397;48.194;11.632;2023-02-14T01:51:17;97829.22;;;0.16
61595;BMP280;47397;48.194;11.632;2023-02-14T01:52:22;97833.94;;;0.10
61595;BMP280;47397;48.194;11.632;2023-02-14T01:53:26;97829.22;;;0.16
61595;BMP280;47397;48.194;11.632;2023-02-14T01:54:28;97821.22;;;0.05
61595;BMP280;47397;48.194;11.632;2023-02-14T01:55:32;97825.84;;;0.15
61595;BMP280;47397;48.194;11.632;2023-02-14T01:56:38;97826.06;;;0.20
61595;BMP280;47397;48.194;11.632;2023-02-14T01:57:42;97829.28;;;0.17
61595;BMP280;47397;48.194;11.632;2023-02-14T01:58:45;97829.41;;;0.03
61595;BMP280;47397;48.194;11.632;2023-02-14T01:59:52;97827.63;;;0.18
61595;BMP280;47397;48.194;11.632;2023-02-14T02:01:29;97834.34;;;0.19
61595;BMP280;47397;48.194;11.632;2023-02-14T02:02:31;97835.34;;;0.05
61595;BMP280;47397;48.194;11.632;2023-02-14T02:03:33;97832.88;;;-0.12
61595;BMP280;47397;48.194;11.632;2023-02-14T02:04:37;97831.91;;;0.03
61595;BMP280;47397;48.194;11.632;2023-02-14T02:05:41;97828.84;;;0.08
61595;BMP280;47397;48.194;11.632;2023-02-14T02:06:44;97825.03;;;-0.02
61595;BMP280;47397;48.194;11.632;2023-02-14T02:07:47;97826.50;;;0.11
61595;BMP280;47397;48.194;11.632;2023-02-14T02:08:51;97821.72;;;0.16
61595;BMP280;47397;48.194;11.632;2023-02-14T02:09:56;97822.41;;;0.13
61595;BMP280;47397;48.194;11.632;2023-02-14T02:10:57;97817.53;;;-0.02
61595;BMP280;47397;48.194;11.632;2023-02-14T02:11:58;97819.97;;;-0.03
61595;BMP280;47397;48.194;11.632;2023-02-14T02:13:04;97823.81;;;-0.10
61595;BMP280;47397;48.194;11.632;2023-02-14T02:14:04;97818.06;;;-0.25
61595;BMP280;47397;48.194;11.632;2023-02-14T02:15:06;97818.44;;;-0.17
61595;BMP280;47397;48.194;11.632;2023-02-14T02:16:19;97810.03;;;-0.02
61595;BMP280;47397;48.194;11.632;2023-02-14T02:17:26;97817.59;;;-0.18
61595;BMP280;47397;48.194;11.632;2023-02-14T02:18:39;97819.31;;;-0.17
61595;BMP280;47397;48.194;11.632;2023-02-14T02:21:53;97821.06;;;0.02
61595;BMP280;47397;48.194;11.632;2023-02-14T02:24:43;97818.03;;;-0.09
61595;BMP280;47397;48.194;11.632;2023-02-14T02:27:52;97813.81;;;-0.10
61595;BMP280;47397;48.194;11.632;2023-02-14T02:32:20;97808.78;;;0.07
61595;BMP280;47397;48.194;11.632;2023-02-14T02:35:30;97814.34;;;0.01
61595;BMP280;47397;48.194;11.632;2023-02-14T02:36:57;97806.81;;;-0.17
61595;BMP280;47397;48.194;11.632;2023-02-14T02:38:08;97812.53;;;-0.02
61595;BMP280;47397;48.194;11.632;2023-02-14T02:39:21;97805.88;;;-0.19
61595;BMP280;47397;48.194;11.632;2023-02-14T02:40:32;97803.50;;;0.01
61595;BMP280;47397;48.194;11.632;2023-02-14T02:41:43;97797.47;;;-0.03
61595;BMP280;47397;48.194;11.632;2023-02-14T02:42:52;97801.59;;;-0.04
61595;BMP280;47397;48.194;11.632;2023-02-14T02:44:04;97794.75;;;-0.08
61595;BMP280;47397;48.194;11.632;2023-02-14T02:45:12;97799.44;;;-0.14
61595;BMP280;47397;48.194;11.632;2023-02-14T02:46:21;97801.38;;;-0.42
61595;BMP280;47397;48.194;11.632;2023-02-14T02:47:26;97798.22;;;-0.22
61595;BMP280;47397;48.194;11.632;2023-02-14T02:48:34;97804.34;;;0.01
61595;BMP280;47397;48.194;11.632;2023-02-14T02:49:41;97803.63;;;0.04
61595;BMP280;47397;48.194;11.632;2023-02-14T02:50:49;97805.53;;;-0.43
61595;BMP280;47397;48.194;11.632;2023-02-14T02:51:53;97798.88;;;-0.42
61595;BMP280;47397;48.194;11.632;2023-02-14T02:53:00;97796.72;;;-0.52
61595;BMP280;47397;48.194;11.632;2023-02-14T02:54:08;97796.66;;;-0.20
61595;BMP280;47397;48.194;11.632;2023-02-14T02:55:15;97799.53;;;-0.12
61595;BMP280;47397;48.194;11.632;2023-02-14T02:56:21;97793.50;;;-0.34
61595;BMP280;47397;48.194;11.632;2023-02-14T02:57:28;97797.03;;;-0.12
61595;BMP280;47397;48.194;11.632;2023-02-14T02:58:34;97801.38;;;-0.26
61595;BMP280;47397;48.194;11.632;2023-02-14T02:59:38;97799.50;;;-0.30
61595;BMP280;47397;48.194;11.632;2023-02-14T03:00:39;97802.44;;;-0.21
61595;BMP280;47397;48.194;11.632;2023-02-14T03:01:40;97803.72;;;-0.45
61595;BMP280;47397;48.194;11.632;2023-02-14T03:02:43;97795.53;;;-0.43
61595;BMP280;47397;48.194;11.632;2023-02-14T03:03:47;97799.81;;;-0.40
61595;BMP280;47397;48.194;11.632;2023-02-14T03:04:50;97796.50;;;-0.23
61595;BMP280;47397;48.194;11.632;2023-02-14T03:05:53;97791.16;;;-0.30
61595;BMP280;47397;48.194;11.632;2023-02-14T03:06:54;97788.53;;;-0.16
61595;BMP280;47397;48.194;11.632;2023-02-14T03:07:54;97789.44;;;-0.14
61595;BMP280;47397;48.194;11.632;2023-02-14T03:08:55;97792.00;;;-0.30
61595;BMP280;47397;48.194;11.632;2023-02-14T03:09:56;97798.59;;;-0.14
61595;BMP280;47397;48.194;11.632;2023-02-14T03:10:58;97795.81;;;-0.03
61595;BMP280;47397;48.194;11.632;2023-02-14T03:12:05;97793.59;;;-0.14
61595;BMP280;47397;48.194;11.632;2023-02-14T03:13:26;97792.66;;;-0.50
61595;BMP280;47397;48.194;11.632;2023-02-14T03:14:32;97784.13;;;-0.38
61595;BMP280;47397;48.194;11.632;2023-02-14T03:15:51;97795.72;;;-0.22
61595;BMP280;47397;48.194;11.632;2023-02-14T03:16:58;97791.59;;;-0.38
61595;BMP280;47397;48.194;11.632;2023-02-14T03:18:06;97799.00;;;-0.23
61595;BMP280;47397;48.194;11.632;2023-02-14T03:19:25;97796.81;;;-0.17
61595;BMP280;47397;48.194;11.632;2023-02-14T03:20:37;97795.03;;;-0.19
61595;BMP280;47397;48.194;11.632;2023-02-14T03:21:46;97803.81;;;-0.10
61595;BMP280;47397;48.194;11.632;2023-02-14T03:22:51;97800.88;;;-0.19
61595;BMP280;47397;48.194;11.632;2023-02-14T03:23:59;97798.44;;;-0.17
61595;BMP280;47397;48.194;11.632;2023-02-14T03:25:08;97790.88;;;-0.19
61595;BMP280;47397;48.194;11.632;2023-02-14T03:26:14;97800.13;;;0.00
61595;BMP280;47397;48.194;11.632;2023-02-14T03:27:21;97793.06;;;0.09
61595;BMP280;47397;48.194;11.632;2023-02-14T03:28:31;97791.41;;;0.10
61595;BMP280;47397;48.194;11.632;2023-02-14T03:29:42;97796.94;;;-0.14
61595;BMP280;47397;48.194;11.632;2023-02-14T03:30:50;97792.38;;;-0.05
61595;BMP280;47397;48.194;11.632;2023-02-14T03:31:57;97787.09;;;-0.11
61595;BMP280;47397;48.194;11.632;2023-02-14T03:33:02;97783.44;;;-0.35
61595;BMP280;47397;48.194;11.632;2023-02-14T03:34:09;97789.63;;;-0.77
61595;BMP280;47397;48.194;11.632;2023-02-14T03:35:17;97794.06;;;-0.55
61595;BMP280;47397;48.194;11.632;2023-02-14T03:36:22;97796.72;;;-0.36
61595;BMP280;47397;48.194;11.632;2023-02-14T03:37:30;97788.97;;;-0.41
61595;BMP280;47397;48.194;11.632;2023-02-14T03:38:34;97797.72;;;-0.33
61595;BMP280;47397;48.194;11.632;2023-02-14T03:39:43;97804.69;;;-0.59
61595;BMP280;47397;48.194;11.632;2023-02-14T03:40:47;97800.72;;;-0.56
61595;BMP280;47397;48.194;11.632;2023-02-14T03:41:51;97803.44;;;-0.51
61595;BMP280;47397;48.194;11.632;2023-02-14T03:42:55;97804.09;;;-0.38
61595;BMP280;47397;48.194;11.632;2023-02-14T03:43:58;97804.03;;;-0.39
61595;BMP280;47397;48.194;11.632;2023-02-14T03:45:01;97801.44;;;-0.24
61595;BMP280;47397;48.194;11.632;2023-02-14T03:46:05;97807.88;;;-0.29
61595;BMP280;47397;48.194;11.632;2023-02-14T03:47:09;97804.22;;;-0.18
61595;BMP280;47397;48.194;11.632;2023-02-14T03:48:12;97810.50;;;-0.26
61595;BMP280;47397;48.194;11.632;2023-02-14T03:49:15;97806.66;;;-0.20
61595;BMP280;47397;48.194;11.632;2023-02-14T03:50:18;97809.94;;;-0.21
61595;BMP280;47397;48.194;11.632;2023-02-14T03:51:20;97809.72;;;-0.25
61595;BMP280;47397;48.194;11.632;2023-02-14T03:52:22;97806.22;;;-0.29
61595;BMP280;47397;48.194;11.632;2023-02-14T03:53:28;97808.94;;;-0.41
61595;BMP280;47397;48.194;11.632;2023-02-14T03:54:31;97813.25;;;-0.38
61595;BMP280;47397;48.194;11.632;2023-02-14T03:55:36;97810.00;;;-0.37
61595;BMP280;47397;48.194;11.632;2023-02-14T03:56:41;97805.72;;;-0.22
61595;BMP280;47397;48.194;11.632;2023-02-14T03:57:50;97799.84;;;-0.56
61595;BMP280;47397;48.194;11.632;2023-02-14T03:58:55;97810.28;;;-0.47
61595;BMP280;47397;48.194;11.632;2023-02-14T03:59:57;97803.44;;;-0.35
61595;BMP280;47397;48.194;11.632;2023-02-14T04:01:00;97808.34;;;-0.53
61595;BMP280;47397;48.194;11.632;2023-02-14T04:02:05;97802.88;;;-0.29
61595;BMP280;47397;48.194;11.632;2023-02-14T04:03:09;97803.00;;;-0.26
61595;BMP280;47397;48.194;11.632;2023-02-14T04:04:13;97803.25;;;-0.72
61595;BMP280;47397;48.194;11.632;2023-02-14T04:05:22;97803.81;;;-0.44
61595;BMP280;47397;48.194;11.632;2023-02-14T04:06:23;97808.56;;;-0.48
61595;BMP280;47397;48.194;11.632;2023-02-14T04:07:24;97803.25;;;-0.38
61595;BMP280;47397;48.194;11.632;2023-02-14T04:08:28;97802.88;;;-0.29
61595;BMP280;47397;48.194;11.632;2023-02-14T04:09:28;97801.81;;;-0.17
61595;BMP280;47397;48.194;11.632;2023-02-14T04:10:29;97798.88;;;-0.26
61595;BMP280;47397;48.194;11.632;2023-02-14T04:11:29;97791.78;;;-0.35
61595;BMP280;47397;48.194;11.632;2023-02-14T04:12:29;97805.66;;;-0.40
61595;BMP280;47397;48.194;11.632;2023-02-14T04:13:30;97810.84;;;-0.37
61595;BMP280;47397;48.194;11.632;2023-02-14T04:14:31;97798.13;;;-0.57
61595;BMP280;47397;48.194;11.632;2023-02-14T04:15:31;97802.44;;;-0.55
61595;BMP280;47397;48.194;11.632;2023-02-14T04:16:32;97805.22;;;-0.49
61595;BMP280;47397;48.194;11.632;2023-02-14T04:17:32;97800.59;;;-0.41
61595;BMP280;47397;48.194;11.632;2023-02-14T04:18:33;97802.75;;;-0.65
61595;BMP280;47397;48.194;11.632;2023-02-14T04:19:33;97806.03;;;-0.66
61595;BMP280;47397;48.194;11.632;2023-02-14T04:20:34;97807.66;;;-0.50
61595;BMP280;47397;48.194;11.632;2023-02-14T04:21:34;97804.94;;;-0.55
61595;BMP280;47397;48.194;11.632;2023-02-14T04:22:34;97801.34;;;-0.60
61595;BMP280;47397;48.194;11.632;2023-02-14T04:23:36;97799.06;;;-0.55
61595;BMP280;47397;48.194;11.632;2023-02-14T04:24:37;97803.84;;;-0.60
61595;BMP280;47397;48.194;11.632;2023-02-14T04:25:37;97802.50;;;-0.37
61595;BMP280;47397;48.194;11.632;2023-02-14T04:26:37;97802.22;;;-0.59
61595;BMP280;47397;48.194;11.632;2023-02-14T04:27:38;97798.28;;;-0.54
61595;BMP280;47397;48.194;11.632;2023-02-14T04:28:38;97801.00;;;-0.50
61595;BMP280;47397;48.194;11.632;2023-02-14T04:29:40;97798.84;;;-0.60
61595;BMP280;47397;48.194;11.632;2023-02-14T04:30:41;97804.03;;;-0.39
61595;BMP280;47397;48.194;11.632;2023-02-14T04:31:41;97792.50;;;-0.37
61595;BMP280;47397;48.194;11.632;2023-02-14T04:32:42;97792.09;;;-0.45
61595;BMP280;47397;48.194;11.632;2023-02-14T04:33:42;97795.84;;;-0.37
61595;BMP280;47397;48.194;11.632;2023-02-14T04:34:43;97800.44;;;-0.28
61595;BMP280;47397;48.194;11.632;2023-02-14T04:35:43;97797.94;;;-0.28
61595;BMP280;47397;48.194;11.632;2023-02-14T04:36:44;97803.72;;;-0.29
61595;BMP280;47397;48.194;11.632;2023-02-14T04:37:44;97804.94;;;-0.55
61595;BMP280;47397;48.194;11.632;2023-02-14T04:38:46;97806.59;;;-0.38
61595;BMP280;47397;48.194;11.632;2023-02-14T04:39:47;97798.00;;;-0.26
61595;BMP280;47397;48.194;11.632;2023-02-14T04:40:48;97800.59;;;-0.25
61595;BMP280;47397;48.194;11.632;2023-02-14T04:41:48;97793.88;;;-0.26
61595;BMP280;47397;48.194;11.632;2023-02-14T04:42:48;97805.88;;;-0.19
61595;BMP280;47397;48.194;11.632;2023-02-14T04:43:49;97807.38;;;-0.39
61595;BMP280;47397;48.194;11.632;2023-02-14T04:44:49;97803.22;;;-0.56
61595;BMP280;47397;48.194;11.632;2023-02-14T04:45:50;97799.75;;;-0.42
61595;BMP280;47397;48.194;11.632;2023-02-14T04:46:50;97798.19;;;-0.40
61595;BMP280;47397;48.194;11.632;2023-02-14T04:47:51;97793.88;;;-0.26
61595;BMP280;47397;48.194;11.632;2023-02-14T04:48:51;97789.13;;;-0.38
61595;BMP280;47397;48.194;11.632;2023-02-14T04:49:52;97788.44;;;-0.35
61595;BMP280;47397;48.194;11.632;2023-02-14T04:50:52;97791.16;;;-0.30
61595;BMP280;47397;48.194;11.632;2023-02-14T04:51:53;97781.31;;;-0.27
61595;BMP280;47397;48.194;11.632;2023-02-14T04:52:53;97783.31;;;-0.20
61595;BMP280;47397;48.194;11.632;2023-02-14T04:53:55;97782.31;;;-0.24
61595;BMP280;47397;48.194;11.632;2023-02-14T04:54:55;97784.25;;;-0.18
61595;BMP280;47397;48.194;11.632;2023-02-14T04:55:56;97784.72;;;-0.25
61595;BMP280;47397;48.194;11.632;2023-02-14T04:56:56;97780.63;;;-0.41
61595;BMP280;47397;48.194;11.632;2023-02-14T04:57:57;97785.03;;;-0.53
61595;BMP280;47397;48.194;11.632;2023-02-14T04:58:57;97783.25;;;-0.72
61595;BMP280;47397;48.194;11.632;2023-02-14T04:59:57;97782.19;;;-1.10
61595;BMP280;47397;48.194;11.632;2023-02-14T05:00:58;97775.69;;;-0.90
61595;BMP280;47397;48.194;11.632;2023-02-14T05:01:58;97779.81;;;-0.58
61595;BMP280;47397;48.194;11.632;2023-02-14T05:02:59;97773.25;;;-0.38
61595;BMP280;47397;48.194;11.632;2023-02-14T05:03:59;97772.22;;;-0.59
61595;BMP280;47397;48.194;11.632;2023-02-14T05:05:00;97782.84;;;-0.80
61595;BMP280;47397;48.194;11.632;2023-02-14T05:06:00;97779.34;;;-0.67
61595;BMP280;47397;48.194;11.632;2023-02-14T05:07:01;97779.50;;;-0.64
61595;BMP280;47397;48.194;11.632;2023-02-14T05:08:01;97770.53;;;-0.43
61595;BMP280;47397;48.194;11.632;2023-02-14T05:09:03;97769.63;;;-0.45
61595;BMP280;47397;48.194;11.632;2023-02-14T05:10:04;97767.25;;;-0.42
61595;BMP280;47397;48.194;11.632;2023-02-14T05:11:05;97765.22;;;-0.33
61595;BMP280;47397;48.194;11.632;2023-02-14T05:12:05;97770.38;;;-0.29
61595;BMP280;47397;48.194;11.632;2023-02-14T05:13:06;97764.44;;;-0.32
61595;BMP280;47397;48.194;11.632;2023-02-14T05:14:06;97763.19;;;-0.40
61595;BMP280;47397;48.194;11.632;2023-02-14T05:15:08;97762.19;;;-0.43
61595;BMP280;47397;48.194;11.632;2023-02-14T05:16:08;97763.53;;;-0.50
61595;BMP280;47397;48.194;11.632;2023-02-14T05:17:09;97772.94;;;-0.62
61595;BMP280;47397;48.194;11.632;2023-02-14T05:18:09;97775.59;;;-0.59
61595;BMP280;47397;48.194;11.632;2023-02-14T05:19:09;97764.28;;;-0.69
61595;BMP280;47397;48.194;11.632;2023-02-14T05:20:10;97766.22;;;-0.63
61595;BMP280;47397;48.194;11.632;2023-02-14T05:21:11;97764.91;;;-0.73
61595;BMP280;47397;48.194;11.632;2023-02-14T05:22:11;97753.56;;;-0.50
61595;BMP280;47397;48.194;11.632;2023-02-14T05:23:11;97758.84;;;-0.44
61595;BMP280;47397;48.194;11.632;2023-02-14T05:24:13;97760.09;;;-0.36
61595;BMP280;47397;48.194;11.632;2023-02-14T05:25:14;97754.09;;;-0.55
61595;BMP280;47397;48.194;11.632;2023-02-14T05:26:14;97760.59;;;-0.59
61595;BMP280;47397;48.194;11.632;2023-02-14T05:27:15;97762.66;;;-0.68
61595;BMP280;47397;48.194;11.632;2023-02-14T05:28:15;97762.47;;;-0.55
61595;BMP280;47397;48.194;11.632;2023-02-14T05:29:16;97757.97;;;-0.44
61595;BMP280;47397;48.194;11.632;2023-02-14T05:30:17;97764.06;;;-0.39
61595;BMP280;47397;48.194;11.632;2023-02-14T05:31:17;97759.91;;;-0.39
61595;BMP280;47397;48.194;11.632;2023-02-14T05:32:17;97757.13;;;-0.45
61595;BMP280;47397;48.194;11.632;2023-02-14T05:33:18;97749.25;;;-0.36
61595;BMP280;47397;48.194;11.632;2023-02-14T05:34:18;97762.94;;;-0.62
61595;BMP280;47397;48.194;11.632;2023-02-14T05:35:19;97751.34;;;-0.44
61595;BMP280;47397;48.194;11.632;2023-02-14T05:36:19;97765.44;;;-0.28
61595;BMP280;47397;48.194;11.632;2023-02-14T05:37:19;97760.59;;;-0.25
61595;BMP280;47397;48.194;11.632;2023-02-14T05:38:20;97762.81;;;-0.31
61595;BMP280;47397;48.194;11.632;2023-02-14T05:39:22;97761.81;;;-0.35
61595;BMP280;47397;48.194;11.632;2023-02-14T05:40:22;97759.75;;;-0.25
61595;BMP280;47397;48.194;11.632;2023-02-14T05:41:23;97764.44;;;-0.32
61595;BMP280;47397;48.194;11.632;2023-02-14T05:42:23;97763.63;;;-0.48
61595;BMP280;47397;48.194;11.632;2023-02-14T05:43:24;97769.31;;;-0.35
61595;BMP280;47397;48.194;11.632;2023-02-14T05:44:24;97773.44;;;-0.35
61595;BMP280;47397;48.194;11.632;2023-02-14T05:45:25;97774.53;;;-0.46
61595;BMP280;47397;48.194;11.632;2023-02-14T05:46:25;97772.41;;;-0.39
61595;BMP280;47397;48.194;11.632;2023-02-14T05:47:26;97766.16;;;-0.30
61595;BMP280;47397;48.194;11.632;2023-02-14T05:48:26;97766.47;;;-0.41
61595;BMP280;47397;48.194;11.632;2023-02-14T05:49:26;97770.53;;;-0.60
61595;BMP280;47397;48.194;11.632;2023-02-14T05:50:27;97771.00;;;-0.84
61595;BMP280;47397;48.194;11.632;2023-02-14T05:51:27;97768.66;;;-0.65
61595;BMP280;47397;48.194;11.632;2023-02-14T05:52:28;97774.84;;;-0.74
61595;BMP280;47397;48.194;11.632;2023-02-14T05:53:28;97779.50;;;-0.64
61595;BMP280;47397;48.194;11.632;2023-02-14T05:54:30;97773.19;;;-0.74
61595;BMP280;47397;48.194;11.632;2023-02-14T05:55:30;97772.22;;;-0.59
61595;BMP280;47397;48.194;11.632;2023-02-14T05:56:31;97777.03;;;-0.46
61595;BMP280;47397;48.194;11.632;2023-02-14T05:57:31;97776.25;;;-0.45
61595;BMP280;47397;48.194;11.632;2023-02-14T05:58:31;97777.56;;;-0.86
61595;BMP280;47397;48.194;11.632;2023-02-14T05:59:32;97774.06;;;-0.73
61595;BMP280;47397;48.194;11.632;2023-02-14T06:00:33;97772.69;;;-0.50
61595;BMP280;47397;48.194;11.632;2023-02-14T06:01:33;97773.81;;;-0.94
61595;BMP280;47397;48.194;11.632;2023-02-14T06:02:34;97784.03;;;-1.06
61595;BMP280;47397;48.194;11.632;2023-02-14T06:03:34;97786.75;;;-1.17
61595;BMP280;47397;48.194;11.632;2023-02-14T06:04:34;97790.56;;;-1.40
61595;BMP280;47397;48.194;11.632;2023-02-14T06:05:35;97796.44;;;-1.54
61595;BMP280;47397;48.194;11.632;2023-02-14T06:06:35;97790.94;;;-1.64
61595;BMP280;47397;48.194;11.632;2023-02-14T06:07:36;97783.25;;;-1.21
61595;BMP280;47397;48.194;11.632;2023-02-14T06:08:36;97784.28;;;-1.01
61595;BMP280;47397;48.194;11.632;2023-02-14T06:09:38;97790.75;;;-0.88
61595;BMP280;47397;48.194;11.632;2023-02-14T06:10:38;97793.59;;;-1.13